createdAt,value
2023-03-05T00:01:12.688Z,100.00
2023-03-05T00:03:39.490Z,100.00
2023-03-05T00:06:06.843Z,100.00
2023-03-05T00:08:34.300Z,100.00
2023-03-05T00:11:07.504Z,100.00
2023-03-05T00:13:34.724Z,100.00
2023-03-05T00:16:06.479Z,100.00
2023-03-05T00:18:33.669Z,100.00
2023-03-05T00:21:00.285Z,100.00
2023-03-05T00:23:27.197Z,100.00
2023-03-05T00:25:54.124Z,100.00
2023-03-05T00:28:20.722Z,100.00
2023-03-05T00:30:47.724Z,100.00
2023-03-05T00:33:14.934Z,100.00
2023-03-05T00:35:46.526Z,100.00
2023-03-05T00:38:13.607Z,100.00
2023-03-05T00:40:41.526Z,100.00
2023-03-05T00:43:09.287Z,100.00
2023-03-05T00:45:36.041Z,100.00
2023-03-05T00:48:03.444Z,100.00
2023-03-05T00:50:30.106Z,100.00
2023-03-05T00:52:56.722Z,100.00
2023-03-05T00:55:23.408Z,100.00
2023-03-05T00:57:50.058Z,100.00
2023-03-05T01:00:17.381Z,100.00
2023-03-05T01:02:44.081Z,100.00
2023-03-05T01:05:13.653Z,100.00
2023-03-05T01:07:41.075Z,100.00
2023-03-05T01:10:09.346Z,100.00
2023-03-05T01:12:35.962Z,100.00
2023-03-05T01:15:03.359Z,100.00
2023-03-05T01:17:30.213Z,100.00
2023-03-05T01:19:56.933Z,100.00
2023-03-05T01:22:23.575Z,100.00
2023-03-05T01:24:50.187Z,100.00
2023-03-05T01:27:16.779Z,100.00
2023-03-05T01:29:43.411Z,99.84
2023-03-05T01:32:10.116Z,99.48
2023-03-05T01:34:37.868Z,100.00
2023-03-05T01:37:04.750Z,98.14
2023-03-05T01:39:31.377Z,97.04
2023-03-05T01:41:57.984Z,98.11
2023-03-05T01:44:28.040Z,96.39
2023-03-05T01:46:55.004Z,97.89
2023-03-05T01:49:28.939Z,95.54
2023-03-05T01:52:17.609Z,95.34
2023-03-05T01:54:52.088Z,93.14
2023-03-05T01:57:24.857Z,92.03
2023-03-05T01:59:55.146Z,92.37
2023-03-05T02:02:25.848Z,91.00
2023-03-05T02:05:02.911Z,91.94
2023-03-05T02:07:31.149Z,90.38
2023-03-05T02:09:57.723Z,89.35
2023-03-05T02:12:24.480Z,88.36
2023-03-05T02:14:59.086Z,88.41
2023-03-05T02:17:27.882Z,88.07
2023-03-05T02:20:03.351Z,88.57
2023-03-05T02:22:29.958Z,86.90
2023-03-05T02:24:56.574Z,86.58
2023-03-05T02:27:34.881Z,86.78
2023-03-05T02:30:02.162Z,87.60
2023-03-05T02:32:28.798Z,87.24
2023-03-05T02:34:55.396Z,86.82
2023-03-05T02:37:22.077Z,86.15
2023-03-05T02:39:48.718Z,87.15
2023-03-05T02:42:15.384Z,87.68
2023-03-05T02:44:41.952Z,87.61
2023-03-05T02:47:08.524Z,87.39
2023-03-05T02:49:35.105Z,88.13
2023-03-05T02:52:01.746Z,87.63
2023-03-05T02:54:28.323Z,88.60
2023-03-05T02:56:54.896Z,89.11
2023-03-05T02:59:21.519Z,89.78
2023-03-05T03:01:48.156Z,90.41
2023-03-05T03:04:14.799Z,90.81
2023-03-05T03:06:41.457Z,91.43
2023-03-05T03:09:08.087Z,92.10
2023-03-05T03:11:34.963Z,92.63
2023-03-05T03:14:01.688Z,92.85
2023-03-05T03:16:29.032Z,92.72
2023-03-05T03:18:55.639Z,93.55
2023-03-05T03:21:25.194Z,93.32
2023-03-05T03:23:51.876Z,95.03
2023-03-05T03:26:19.281Z,93.42
2023-03-05T03:28:46.105Z,93.54
2023-03-05T03:31:12.798Z,94.17
2023-03-05T03:33:39.455Z,93.47
2023-03-05T03:36:06.543Z,94.03
2023-03-05T03:38:33.272Z,94.40
2023-03-05T03:40:59.892Z,96.07
2023-03-05T03:43:26.535Z,95.24
2023-03-05T03:45:53.180Z,95.78
2023-03-05T03:48:19.855Z,96.47
2023-03-05T03:50:46.449Z,97.79
2023-03-05T03:53:14.384Z,98.63
2023-03-05T03:55:46.546Z,99.21
2023-03-05T03:58:13.568Z,99.59
2023-03-05T04:00:40.809Z,99.74
2023-03-05T04:03:07.980Z,100.00
2023-03-05T04:05:34.672Z,100.00
2023-03-05T04:08:01.499Z,100.00
2023-03-05T04:10:28.072Z,100.00
2023-03-05T04:12:54.688Z,100.00
2023-03-05T04:15:21.334Z,100.00
2023-03-05T04:17:47.982Z,100.00
2023-03-05T04:20:14.558Z,100.00
2023-03-05T04:22:41.203Z,100.00
2023-03-05T04:25:08.569Z,100.00
2023-03-05T04:27:37.565Z,100.00
2023-03-05T04:30:05.112Z,100.00
2023-03-05T04:32:31.845Z,100.00
2023-03-05T04:35:00.170Z,100.00
2023-03-05T04:37:26.838Z,100.00
2023-03-05T04:39:53.515Z,100.00
2023-03-05T04:42:21.177Z,100.00
2023-03-05T04:44:49.581Z,100.00
2023-03-05T04:47:17.154Z,100.00
2023-03-05T04:49:44.239Z,100.00
2023-03-05T04:52:12.518Z,100.00
2023-03-05T04:54:39.446Z,100.00
2023-03-05T04:57:06.473Z,100.00
2023-03-05T04:59:33.211Z,100.00
2023-03-05T05:01:59.956Z,100.00
2023-03-05T05:04:26.678Z,100.00
2023-03-05T05:06:56.252Z,100.00
2023-03-05T05:09:24.781Z,100.00
2023-03-05T05:11:51.742Z,100.00
2023-03-05T05:14:18.616Z,100.00
2023-03-05T05:16:45.217Z,100.00
2023-03-05T05:19:12.096Z,100.00
2023-03-05T05:21:38.758Z,100.00
2023-03-05T05:24:05.852Z,100.00
2023-03-05T05:26:32.500Z,100.00
2023-03-05T05:29:00.787Z,100.00
2023-03-05T05:31:27.536Z,100.00
2023-03-05T05:33:54.192Z,100.00
2023-03-05T05:36:22.393Z,100.00
2023-03-05T05:38:49.330Z,100.00
2023-03-05T05:41:18.730Z,100.00
2023-03-05T05:43:45.983Z,100.00
2023-03-05T05:46:15.634Z,100.00
2023-03-05T05:48:43.537Z,100.00
2023-03-05T05:51:15.133Z,100.00
2023-03-05T05:53:43.083Z,100.00
2023-03-05T05:56:11.468Z,100.00
2023-03-05T05:58:40.008Z,100.00
2023-03-05T06:01:17.734Z,100.00
2023-03-05T06:03:44.782Z,100.00
2023-03-05T06:06:13.757Z,100.00
2023-03-05T06:08:40.870Z,100.00
2023-03-05T06:11:07.958Z,100.00
2023-03-05T06:13:35.098Z,100.00
2023-03-05T06:16:04.864Z,100.00
2023-03-05T06:18:32.001Z,100.00
2023-03-05T06:21:03.897Z,100.00
2023-03-05T06:23:30.715Z,100.00
2023-03-05T06:26:02.490Z,100.00
2023-03-05T06:28:29.715Z,100.00
2023-03-05T06:31:04.241Z,100.00
2023-03-05T06:33:31.365Z,100.00
2023-03-05T06:35:58.423Z,100.00
2023-03-05T06:38:25.494Z,100.00
2023-03-05T06:40:52.378Z,100.00
2023-03-05T06:43:18.999Z,100.00
2023-03-05T06:45:45.858Z,100.00
2023-03-05T06:48:12.911Z,100.00
2023-03-05T06:50:39.659Z,100.00
2023-03-05T06:53:06.278Z,100.00
2023-03-05T06:55:39.706Z,100.00
2023-03-05T06:58:07.143Z,100.00
2023-03-05T07:00:34.484Z,100.00
2023-03-05T07:03:01.098Z,100.00
2023-03-05T07:05:27.877Z,100.00
2023-03-05T07:07:54.476Z,100.00
2023-03-05T07:10:21.278Z,100.00
2023-03-05T07:12:48.010Z,100.00
2023-03-05T07:15:14.709Z,100.00
2023-03-05T07:17:41.378Z,100.00
2023-03-05T07:20:08.947Z,100.00
2023-03-05T07:22:38.225Z,100.00
2023-03-05T07:25:06.069Z,100.00
2023-03-05T07:27:37.386Z,100.00
2023-03-05T07:30:05.275Z,100.00
2023-03-05T07:32:34.765Z,100.00
2023-03-05T07:35:01.572Z,100.00
2023-03-05T07:37:28.198Z,100.00
2023-03-05T07:39:54.761Z,100.00
2023-03-05T07:42:21.389Z,100.00
2023-03-05T07:44:48.424Z,100.00
2023-03-05T07:47:15.428Z,100.00
2023-03-05T07:49:42.194Z,99.90
2023-03-05T07:52:09.608Z,99.91
2023-03-05T07:54:38.974Z,99.20
2023-03-05T07:57:07.182Z,97.25
2023-03-05T07:59:33.824Z,98.62
2023-03-05T08:02:00.776Z,98.01
2023-03-05T08:04:27.721Z,97.37
2023-03-05T08:06:54.327Z,95.55
2023-03-05T08:09:20.961Z,96.72
2023-03-05T08:11:47.643Z,93.35
2023-03-05T08:14:14.253Z,90.21
2023-03-05T08:16:41.326Z,87.20
2023-03-05T08:19:08.404Z,84.40
2023-03-05T08:21:36.453Z,85.29
2023-03-05T08:24:06.462Z,84.96
2023-03-05T08:26:37.712Z,83.64
2023-03-05T08:29:05.392Z,83.51
2023-03-05T08:31:32.908Z,82.45
2023-03-05T08:34:01.739Z,83.38
2023-03-05T08:36:29.340Z,81.33
2023-03-05T08:38:56.304Z,81.32
2023-03-05T08:41:22.929Z,81.00
2023-03-05T08:43:49.623Z,79.70
2023-03-05T08:46:17.225Z,80.08
2023-03-05T08:48:44.076Z,79.88
2023-03-05T08:51:25.858Z,79.66
2023-03-05T08:53:54.489Z,78.55
2023-03-05T08:56:21.541Z,79.87
2023-03-05T08:58:48.375Z,79.83
2023-03-05T09:01:15.375Z,77.79
2023-03-05T09:03:42.218Z,78.12
2023-03-05T09:06:10.950Z,76.76
2023-03-05T09:08:37.646Z,74.62
2023-03-05T09:11:06.659Z,72.98
2023-03-05T09:13:33.885Z,71.89
2023-03-05T09:16:06.640Z,69.38
2023-03-05T09:18:36.687Z,70.40
2023-03-05T09:21:08.458Z,70.34
2023-03-05T09:23:35.151Z,70.84
2023-03-05T09:26:02.439Z,70.54
2023-03-05T09:28:29.188Z,70.41
2023-03-05T09:30:55.816Z,71.10
2023-03-05T09:33:22.403Z,70.83
2023-03-05T09:35:49.027Z,71.35
2023-03-05T09:38:16.002Z,70.05
2023-03-05T09:40:42.698Z,69.69
2023-03-05T09:43:32.175Z,70.66
2023-03-05T09:46:32.929Z,69.77
2023-03-05T09:49:12.328Z,70.35
2023-03-05T09:51:41.494Z,68.56
2023-03-05T09:54:24.943Z,68.44
2023-03-05T09:56:58.711Z,66.80
2023-03-05T09:59:28.649Z,64.87
2023-03-05T10:02:12.600Z,65.82
2023-03-05T10:04:44.299Z,64.39
2023-03-05T10:07:27.548Z,64.02
2023-03-05T10:10:31.513Z,65.35
2023-03-05T10:13:01.995Z,66.67
2023-03-05T10:15:39.836Z,66.49
2023-03-05T10:18:23.147Z,66.53
2023-03-05T10:20:56.537Z,66.35
2023-03-05T10:23:37.563Z,64.90
2023-03-05T10:26:14.644Z,65.99
2023-03-05T10:29:27.076Z,67.67
2023-03-05T10:31:53.731Z,68.86
2023-03-05T10:34:40.778Z,68.95
2023-03-05T10:37:16.500Z,69.34
2023-03-05T10:40:06.136Z,68.02
2023-03-05T10:42:52.046Z,67.12
2023-03-05T10:45:23.747Z,68.49
2023-03-05T10:48:12.864Z,67.77
2023-03-05T10:50:47.533Z,66.13
2023-03-05T10:53:26.284Z,67.93
2023-03-05T10:55:56.266Z,66.25
2023-03-05T10:58:24.961Z,66.65
2023-03-05T11:01:09.975Z,65.09
2023-03-05T11:03:52.600Z,64.06
2023-03-05T11:06:27.145Z,63.09
2023-03-05T11:08:54.070Z,63.62
2023-03-05T11:11:23.158Z,63.33
2023-03-05T11:13:55.352Z,64.11
2023-03-05T11:16:27.097Z,65.39
2023-03-05T11:19:15.280Z,65.43
2023-03-05T11:21:43.770Z,65.51
2023-03-05T11:24:19.601Z,66.01
2023-03-05T11:26:56.493Z,66.54
2023-03-05T11:29:26.430Z,66.45
2023-03-05T11:32:16.122Z,67.66
2023-03-05T11:34:48.223Z,71.05
2023-03-05T11:37:29.712Z,72.79
2023-03-05T11:40:18.787Z,74.73
2023-03-05T11:43:02.627Z,74.88
2023-03-05T11:45:37.143Z,72.87
2023-03-05T11:48:17.286Z,73.98
2023-03-05T11:50:49.826Z,74.82
2023-03-05T11:53:25.872Z,76.64
2023-03-05T11:56:09.226Z,75.50
2023-03-05T11:58:41.778Z,76.19
2023-03-05T12:01:23.866Z,78.34
2023-03-05T12:03:55.940Z,78.67
2023-03-05T12:06:48.713Z,78.57
2023-03-05T12:09:33.929Z,82.14
2023-03-05T12:12:24.559Z,83.04
2023-03-05T12:15:01.910Z,83.60
2023-03-05T12:18:04.419Z,84.96
2023-03-05T12:21:03.487Z,84.09
2023-03-05T12:24:01.890Z,82.87
2023-03-05T12:26:53.511Z,82.19
2023-03-05T12:29:54.855Z,79.30
2023-03-05T12:32:39.595Z,81.15
2023-03-05T12:35:27.616Z,78.01
2023-03-05T12:38:25.676Z,79.22
2023-03-05T12:41:28.219Z,78.01
2023-03-05T12:44:15.650Z,77.61
2023-03-05T12:46:44.005Z,78.12
2023-03-05T12:49:36.699Z,80.36
2023-03-05T12:52:25.888Z,82.97
2023-03-05T12:55:15.817Z,85.83
2023-03-05T12:57:45.836Z,91.20
2023-03-05T13:00:27.891Z,96.68
2023-03-05T13:03:00.558Z,100.00
2023-03-05T13:05:36.370Z,100.00
2023-03-05T13:08:45.251Z,100.00
2023-03-05T13:11:33.754Z,100.00
2023-03-05T13:14:24.084Z,100.00
2023-03-05T13:16:57.383Z,100.00
2023-03-05T13:19:25.074Z,100.00
2023-03-05T13:22:08.735Z,97.14
2023-03-05T13:24:41.267Z,95.82
2023-03-05T13:27:34.236Z,91.58
2023-03-05T13:30:06.841Z,92.74
2023-03-05T13:32:36.886Z,93.08
2023-03-05T13:35:16.251Z,92.60
2023-03-05T13:38:00.040Z,91.30
2023-03-05T13:40:35.123Z,94.46
2023-03-05T13:43:22.859Z,90.26
2023-03-05T13:45:56.761Z,89.96
2023-03-05T13:48:40.196Z,87.95
2023-03-05T13:51:09.554Z,88.78
2023-03-05T13:53:40.024Z,88.70
2023-03-05T13:56:20.573Z,88.13
2023-03-05T13:58:49.087Z,86.22
2023-03-05T14:01:29.846Z,86.27
2023-03-05T14:04:20.919Z,86.75
2023-03-05T14:07:02.021Z,87.33
2023-03-05T14:09:40.083Z,86.97
2023-03-05T14:12:07.218Z,85.70
2023-03-05T14:14:44.360Z,85.85
2023-03-05T14:17:32.835Z,86.86
2023-03-05T14:20:21.553Z,88.89
2023-03-05T14:22:50.714Z,85.88
2023-03-05T14:25:35.194Z,88.53
2023-03-05T14:28:27.422Z,89.44
2023-03-05T14:31:12.499Z,89.97
2023-03-05T14:33:53.285Z,92.95
2023-03-05T14:36:25.877Z,99.28
2023-03-05T14:38:53.820Z,99.94
2023-03-05T14:41:32.486Z,100.00
2023-03-05T14:43:59.286Z,100.00
2023-03-05T14:46:25.959Z,100.00
2023-03-05T14:48:52.794Z,99.48
2023-03-05T14:51:19.411Z,100.00
2023-03-05T14:53:48.733Z,98.38
2023-03-05T14:56:23.840Z,99.45
2023-03-05T14:58:50.441Z,99.15
2023-03-05T15:01:17.534Z,100.00
2023-03-05T15:03:45.041Z,100.00
2023-03-05T15:06:27.871Z,100.00
2023-03-05T15:08:55.370Z,100.00
2023-03-05T15:11:22.725Z,100.00
2023-03-05T15:13:52.769Z,100.00
2023-03-05T15:16:23.077Z,100.00
2023-03-05T15:18:50.025Z,100.00
2023-03-05T15:21:16.713Z,100.00
2023-03-05T15:23:44.630Z,100.00
2023-03-05T15:26:14.398Z,100.00
2023-03-05T15:28:41.604Z,99.69
2023-03-05T15:31:08.659Z,100.00
2023-03-05T15:33:35.544Z,100.00
2023-03-05T15:36:02.154Z,99.55
2023-03-05T15:38:28.884Z,98.29
2023-03-05T15:40:56.367Z,99.08
2023-03-05T15:43:25.938Z,99.11
2023-03-05T15:45:59.014Z,98.91
2023-03-05T15:48:25.612Z,99.38
2023-03-05T15:50:52.168Z,98.49
2023-03-05T15:53:19.315Z,98.37
2023-03-05T15:55:46.211Z,98.70
2023-03-05T15:58:17.158Z,99.18
2023-03-05T16:00:44.627Z,97.51
2023-03-05T16:03:11.492Z,98.45
2023-03-05T16:05:39.424Z,99.26
2023-03-05T16:08:06.997Z,99.21
2023-03-05T16:10:37.073Z,99.95
2023-03-05T16:13:11.238Z,99.97
2023-03-05T16:15:39.660Z,100.00
2023-03-05T16:18:16.235Z,100.00
2023-03-05T16:20:46.459Z,99.39
2023-03-05T16:23:13.282Z,100.00
2023-03-05T16:25:40.050Z,100.00
2023-03-05T16:28:06.732Z,100.00
2023-03-05T16:30:33.471Z,100.00
2023-03-05T16:33:00.389Z,100.00
2023-03-05T16:35:27.197Z,100.00
2023-03-05T16:37:53.812Z,98.65
2023-03-05T16:40:20.583Z,99.73
2023-03-05T16:42:47.326Z,100.00
2023-03-05T16:45:14.008Z,98.51
2023-03-05T16:47:40.979Z,98.00
2023-03-05T16:50:09.741Z,95.23
2023-03-05T16:52:36.910Z,95.55
2023-03-05T16:55:04.901Z,97.42
2023-03-05T16:57:31.775Z,98.32
2023-03-05T16:59:58.719Z,99.39
2023-03-05T17:02:25.329Z,96.66
2023-03-05T17:04:51.929Z,97.41
2023-03-05T17:07:18.649Z,100.00
2023-03-05T17:09:47.824Z,100.00
2023-03-05T17:12:14.401Z,99.28
2023-03-05T17:14:41.105Z,98.57
2023-03-05T17:17:07.946Z,97.60
2023-03-05T17:19:34.650Z,99.26
2023-03-05T17:22:01.274Z,98.72
2023-03-05T17:24:27.935Z,100.00
2023-03-05T17:26:54.504Z,100.00
2023-03-05T17:29:22.573Z,99.80
2023-03-05T17:31:53.252Z,98.54
2023-03-05T17:34:33.320Z,99.31
2023-03-05T17:37:02.046Z,100.00
2023-03-05T17:39:29.085Z,100.00
2023-03-05T17:41:55.728Z,100.00
2023-03-05T17:44:22.306Z,100.00
2023-03-05T17:46:48.916Z,100.00
2023-03-05T17:49:15.475Z,100.00
2023-03-05T17:51:42.102Z,100.00
2023-03-05T17:54:08.716Z,100.00
2023-03-05T17:56:35.345Z,100.00
2023-03-05T17:59:02.059Z,100.00
2023-03-05T18:01:32.256Z,100.00
2023-03-05T18:03:59.339Z,100.00
2023-03-05T18:06:26.394Z,100.00
2023-03-05T18:08:53.114Z,100.00
2023-03-05T18:11:20.302Z,100.00
2023-03-05T18:13:46.918Z,100.00
2023-03-05T18:16:16.985Z,100.00
2023-03-05T18:18:44.783Z,100.00
2023-03-05T18:21:11.559Z,100.00
2023-03-05T18:23:38.125Z,100.00
2023-03-05T18:26:04.761Z,100.00
2023-03-05T18:28:31.701Z,100.00
2023-03-05T18:30:58.392Z,100.00
2023-03-05T18:33:25.734Z,100.00
2023-03-05T18:35:53.053Z,100.00
2023-03-05T18:38:23.985Z,100.00
2023-03-05T18:40:51.565Z,100.00
2023-03-05T18:43:22.764Z,100.00
2023-03-05T18:45:54.643Z,100.00
2023-03-05T18:48:21.433Z,100.00
2023-03-05T18:50:52.594Z,100.00
2023-03-05T18:53:19.830Z,100.00
2023-03-05T18:55:46.601Z,100.00
2023-03-05T18:58:17.531Z,100.00
2023-03-05T19:00:46.989Z,100.00
2023-03-05T19:03:15.004Z,100.00
2023-03-05T19:05:42.480Z,100.00
2023-03-05T19:08:09.178Z,100.00
2023-03-05T19:10:36.468Z,100.00
2023-03-05T19:13:08.076Z,100.00
2023-03-05T19:15:34.721Z,100.00
2023-03-05T19:18:01.353Z,100.00
2023-03-05T19:20:27.956Z,100.00
2023-03-05T19:22:55.818Z,100.00
2023-03-05T19:25:22.590Z,100.00
2023-03-05T19:27:49.252Z,100.00
2023-03-05T19:30:16.384Z,100.00
2023-03-05T19:32:43.073Z,100.00
2023-03-05T19:35:15.109Z,100.00
2023-03-05T19:37:41.929Z,100.00
2023-03-05T19:40:09.354Z,100.00
2023-03-05T19:42:38.040Z,100.00
2023-03-05T19:45:06.330Z,100.00
2023-03-05T19:47:32.953Z,100.00
2023-03-05T19:49:59.524Z,100.00
2023-03-05T19:52:26.820Z,100.00
2023-03-05T19:54:53.546Z,100.00
2023-03-05T19:57:20.132Z,100.00
2023-03-05T19:59:46.901Z,100.00
2023-03-05T20:02:13.784Z,100.00
2023-03-05T20:04:40.388Z,100.00
2023-03-05T20:07:07.195Z,100.00
2023-03-05T20:09:33.788Z,100.00
2023-03-05T20:12:02.759Z,100.00
2023-03-05T20:14:29.484Z,100.00
2023-03-05T20:16:56.089Z,100.00
2023-03-05T20:19:22.671Z,100.00
2023-03-05T20:21:49.328Z,100.00
2023-03-05T20:24:18.368Z,100.00
2023-03-05T20:26:46.654Z,100.00
2023-03-05T20:29:17.478Z,100.00
2023-03-05T20:31:44.926Z,100.00
2023-03-05T20:34:14.582Z,100.00
2023-03-05T20:36:41.836Z,100.00
2023-03-05T20:39:09.001Z,100.00
2023-03-05T20:41:38.122Z,100.00
2023-03-05T20:44:05.719Z,100.00
2023-03-05T20:46:39.450Z,100.00
2023-03-05T20:49:06.164Z,100.00
2023-03-05T20:51:35.887Z,100.00
2023-03-05T20:54:20.644Z,100.00
2023-03-05T20:56:47.864Z,100.00
2023-03-05T20:59:14.583Z,100.00
2023-03-05T21:01:41.261Z,100.00
2023-03-05T21:04:08.276Z,100.00
2023-03-05T21:06:36.040Z,100.00
2023-03-05T21:09:02.765Z,100.00
2023-03-05T21:11:29.629Z,100.00
2023-03-05T21:13:56.226Z,100.00
2023-03-05T21:16:27.717Z,100.00
2023-03-05T21:18:56.124Z,100.00
2023-03-05T21:21:22.956Z,100.00
2023-03-05T21:23:49.579Z,100.00
2023-03-05T21:26:16.313Z,100.00
2023-03-05T21:28:43.161Z,100.00
2023-03-05T21:31:15.216Z,100.00
2023-03-05T21:33:42.181Z,100.00
2023-03-05T21:36:08.907Z,100.00
2023-03-05T21:38:35.782Z,100.00
2023-03-05T21:41:02.804Z,100.00
2023-03-05T21:43:31.340Z,100.00
2023-03-05T21:45:59.757Z,100.00
2023-03-05T21:48:26.552Z,100.00
2023-03-05T21:50:54.824Z,100.00
2023-03-05T21:53:21.887Z,100.00
2023-03-05T21:56:22.083Z,100.00
2023-03-05T21:58:49.112Z,100.00
2023-03-05T22:01:19.373Z,100.00
2023-03-05T22:03:46.272Z,100.00
2023-03-05T22:06:14.951Z,100.00
2023-03-05T22:08:42.044Z,100.00
2023-03-05T22:11:13.604Z,100.00
2023-03-05T22:13:40.829Z,100.00
2023-03-05T22:16:09.192Z,100.00
2023-03-05T22:18:36.552Z,100.00
2023-03-05T22:21:04.906Z,100.00
2023-03-05T22:23:34.559Z,100.00
2023-03-05T22:26:04.940Z,100.00
2023-03-05T22:28:32.735Z,100.00
2023-03-05T22:30:59.774Z,100.00
2023-03-05T22:33:27.498Z,100.00
2023-03-05T22:35:54.170Z,100.00
2023-03-05T22:38:21.260Z,100.00
2023-03-05T22:40:49.356Z,100.00
2023-03-05T22:43:17.195Z,100.00
2023-03-05T22:45:44.257Z,100.00
2023-03-05T22:48:11.561Z,100.00
2023-03-05T22:50:39.696Z,100.00
2023-03-05T22:53:06.762Z,100.00
2023-03-05T22:55:33.345Z,100.00
2023-03-05T22:58:00.023Z,100.00
2023-03-05T23:00:29.624Z,100.00
2023-03-05T23:02:56.629Z,100.00
2023-03-05T23:05:23.331Z,100.00
2023-03-05T23:07:49.958Z,100.00
2023-03-05T23:10:21.705Z,100.00
2023-03-05T23:12:51.073Z,100.00
2023-03-05T23:15:23.037Z,100.00
2023-03-05T23:17:49.635Z,100.00
2023-03-05T23:20:17.961Z,100.00
2023-03-05T23:22:45.209Z,100.00
2023-03-05T23:25:14.930Z,100.00
2023-03-05T23:27:42.238Z,100.00
2023-03-05T23:30:22.177Z,100.00
2023-03-05T23:32:50.470Z,100.00
2023-03-05T23:35:20.488Z,100.00
2023-03-05T23:37:47.647Z,100.00
2023-03-05T23:40:18.283Z,100.00
2023-03-05T23:42:45.607Z,100.00
2023-03-05T23:45:14.419Z,100.00
2023-03-05T23:47:41.667Z,100.00
2023-03-05T23:50:14.793Z,100.00
2023-03-05T23:52:43.148Z,100.00
2023-03-05T23:55:10.111Z,100.00
2023-03-05T23:57:36.778Z,100.00
